sensor_id;sensor_type;location;lat;lon;timestamp;temperature;humidity
60309;DHT22;50313;52.894;6.492;2024-03-02T00:00:02;7.00;99.90
60309;DHT22;50313;52.894;6.492;2024-03-02T00:02:46;7.10;99.90
60309;DHT22;50313;52.894;6.492;2024-03-02T00:05:13;7.10;99.90
60309;DHT22;50313;52.894;6.492;2024-03-02T00:07:43;7.10;99.90
60309;DHT22;50313;52.894;6.492;2024-03-02T00:10:11;7.10;99.90
60309;DHT22;50313;52.894;6.492;2024-03-02T00:12:38;7.20;81.80
60309;DHT22;50313;52.894;6.492;2024-03-02T00:17:52;7.30;22.20
60309;DHT22;50313;52.894;6.492;2024-03-02T00:20:22;7.30;1.00
60309;DHT22;50313;52.894;6.492;2024-03-02T00:22:48;7.40;1.10
60309;DHT22;50313;52.894;6.492;2024-03-02T00:25:14;7.40;1.00
60309;DHT22;50313;52.894;6.492;2024-03-02T00:27:40;7.40;1.00
60309;DHT22;50313;52.894;6.492;2024-03-02T00:32:59;7.40;1.00
60309;DHT22;50313;52.894;6.492;2024-03-02T00:35:25;7.40;99.90
60309;DHT22;50313;52.894;6.492;2024-03-02T00:37:51;7.40;1.00
60309;DHT22;50313;52.894;6.492;2024-03-02T00:40:17;7.50;1.00
60309;DHT22;50313;52.894;6.492;2024-03-02T00:42:44;7.50;1.00
60309;DHT22;50313;52.894;6.492;2024-03-02T00:45:10;7.40;1.00
60309;DHT22;50313;52.894;6.492;2024-03-02T00:47:42;7.50;1.00
60309;DHT22;50313;52.894;6.492;2024-03-02T00:50:08;7.50;99.90
60309;DHT22;50313;52.894;6.492;2024-03-02T00:52:34;7.50;99.90
60309;DHT22;50313;52.894;6.492;2024-03-02T00:55:01;7.50;99.90
60309;DHT22;50313;52.894;6.492;2024-03-02T00:57:30;7.60;99.90
60309;DHT22;50313;52.894;6.492;2024-03-02T00:59:57;7.60;99.90
60309;DHT22;50313;52.894;6.492;2024-03-02T01:02:23;7.60;99.90
60309;DHT22;50313;52.894;6.492;2024-03-02T01:04:48;7.60;53.50
60309;DHT22;50313;52.894;6.492;2024-03-02T01:07:14;7.70;1.00
60309;DHT22;50313;52.894;6.492;2024-03-02T01:09:40;7.70;1.00
60309;DHT22;50313;52.894;6.492;2024-03-02T01:12:07;7.60;99.90
60309;DHT22;50313;52.894;6.492;2024-03-02T01:14:32;7.60;99.90
60309;DHT22;50313;52.894;6.492;2024-03-02T01:16:58;7.50;99.90
60309;DHT22;50313;52.894;6.492;2024-03-02T01:19:24;7.60;59.40
60309;DHT22;50313;52.894;6.492;2024-03-02T01:21:50;7.50;99.90
60309;DHT22;50313;52.894;6.492;2024-03-02T01:24:16;7.50;99.90
60309;DHT22;50313;52.894;6.492;2024-03-02T01:26:42;7.40;1.00
60309;DHT22;50313;52.894;6.492;2024-03-02T01:29:07;7.40;1.00
60309;DHT22;50313;52.894;6.492;2024-03-02T01:31:33;7.40;53.70
60309;DHT22;50313;52.894;6.492;2024-03-02T01:33:59;7.40;99.90
60309;DHT22;50313;52.894;6.492;2024-03-02T01:36:24;7.40;99.90
60309;DHT22;50313;52.894;6.492;2024-03-02T01:38:50;7.40;99.90
60309;DHT22;50313;52.894;6.492;2024-03-02T01:41:16;7.40;99.90
60309;DHT22;50313;52.894;6.492;2024-03-02T01:43:42;7.40;99.90
60309;DHT22;50313;52.894;6.492;2024-03-02T01:46:07;7.30;99.90
60309;DHT22;50313;52.894;6.492;2024-03-02T01:48:34;7.40;99.90
60309;DHT22;50313;52.894;6.492;2024-03-02T01:51:00;7.40;99.90
60309;DHT22;50313;52.894;6.492;2024-03-02T01:53:26;7.40;99.90
60309;DHT22;50313;52.894;6.492;2024-03-02T01:55:53;7.40;99.90
60309;DHT22;50313;52.894;6.492;2024-03-02T01:58:19;7.40;99.90
60309;DHT22;50313;52.894;6.492;2024-03-02T02:00:44;7.50;94.60
60309;DHT22;50313;52.894;6.492;2024-03-02T02:03:10;7.50;92.40
60309;DHT22;50313;52.894;6.492;2024-03-02T02:05:36;7.50;1.00
60309;DHT22;50313;52.894;6.492;2024-03-02T02:08:02;7.50;96.70
60309;DHT22;50313;52.894;6.492;2024-03-02T02:10:28;7.60;1.00
60309;DHT22;50313;52.894;6.492;2024-03-02T02:12:53;7.60;1.00
60309;DHT22;50313;52.894;6.492;2024-03-02T02:15:26;7.50;1.00
60309;DHT22;50313;52.894;6.492;2024-03-02T02:17:52;7.50;99.90
60309;DHT22;50313;52.894;6.492;2024-03-02T02:20:18;7.50;99.90
60309;DHT22;50313;52.894;6.492;2024-03-02T02:25:23;7.60;1.00
60309;DHT22;50313;52.894;6.492;2024-03-02T02:27:49;7.50;1.00
60309;DHT22;50313;52.894;6.492;2024-03-02T02:30:26;7.60;1.00
60309;DHT22;50313;52.894;6.492;2024-03-02T02:32:52;7.60;62.00
60309;DHT22;50313;52.894;6.492;2024-03-02T02:35:18;7.60;1.00
60309;DHT22;50313;52.894;6.492;2024-03-02T02:37:45;7.60;99.90
60309;DHT22;50313;52.894;6.492;2024-03-02T02:40:12;7.60;99.90
60309;DHT22;50313;52.894;6.492;2024-03-02T02:42:38;7.60;99.90
60309;DHT22;50313;52.894;6.492;2024-03-02T02:45:05;7.50;1.00
60309;DHT22;50313;52.894;6.492;2024-03-02T02:47:31;7.60;1.00
60309;DHT22;50313;52.894;6.492;2024-03-02T02:50:04;7.60;99.90
60309;DHT22;50313;52.894;6.492;2024-03-02T02:52:37;7.60;35.40
60309;DHT22;50313;52.894;6.492;2024-03-02T02:55:06;7.60;99.90
60309;DHT22;50313;52.894;6.492;2024-03-02T02:57:35;7.60;1.00
60309;DHT22;50313;52.894;6.492;2024-03-02T03:00:14;7.70;99.90
60309;DHT22;50313;52.894;6.492;2024-03-02T03:02:50;7.60;1.00
60309;DHT22;50313;52.894;6.492;2024-03-02T03:05:16;7.70;99.90
60309;DHT22;50313;52.894;6.492;2024-03-02T03:07:42;7.70;1.00
60309;DHT22;50313;52.894;6.492;2024-03-02T03:10:09;7.70;1.00
60309;DHT22;50313;52.894;6.492;2024-03-02T03:12:35;7.70;1.00
60309;DHT22;50313;52.894;6.492;2024-03-02T03:15:01;7.70;99.90
60309;DHT22;50313;52.894;6.492;2024-03-02T03:17:27;7.70;99.90
60309;DHT22;50313;52.894;6.492;2024-03-02T03:19:53;7.80;99.90
60309;DHT22;50313;52.894;6.492;2024-03-02T03:22:19;7.70;99.90
60309;DHT22;50313;52.894;6.492;2024-03-02T03:24:44;7.80;99.90
60309;DHT22;50313;52.894;6.492;2024-03-02T03:27:10;7.80;99.90
60309;DHT22;50313;52.894;6.492;2024-03-02T03:29:39;7.80;99.90
60309;DHT22;50313;52.894;6.492;2024-03-02T03:32:05;7.80;99.90
60309;DHT22;50313;52.894;6.492;2024-03-02T03:34:35;7.70;99.90
60309;DHT22;50313;52.894;6.492;2024-03-02T03:37:01;7.70;1.00
60309;DHT22;50313;52.894;6.492;2024-03-02T03:39:27;7.70;99.90
60309;DHT22;50313;52.894;6.492;2024-03-02T03:41:54;7.70;99.90
60309;DHT22;50313;52.894;6.492;2024-03-02T03:44:19;7.80;99.90
60309;DHT22;50313;52.894;6.492;2024-03-02T03:46:45;7.80;99.90
60309;DHT22;50313;52.894;6.492;2024-03-02T03:49:11;7.80;1.00
60309;DHT22;50313;52.894;6.492;2024-03-02T03:51:37;7.70;1.00
60309;DHT22;50313;52.894;6.492;2024-03-02T03:54:02;7.70;1.00
60309;DHT22;50313;52.894;6.492;2024-03-02T03:56:28;7.70;1.00
60309;DHT22;50313;52.894;6.492;2024-03-02T03:58:54;7.70;99.90
60309;DHT22;50313;52.894;6.492;2024-03-02T04:01:19;7.70;99.90
60309;DHT22;50313;52.894;6.492;2024-03-02T04:03:47;7.70;99.90
60309;DHT22;50313;52.894;6.492;2024-03-02T04:06:13;7.70;99.90
60309;DHT22;50313;52.894;6.492;2024-03-02T04:08:41;7.70;99.90
60309;DHT22;50313;52.894;6.492;2024-03-02T04:11:06;7.70;99.90
60309;DHT22;50313;52.894;6.492;2024-03-02T04:13:33;7.70;99.90
60309;DHT22;50313;52.894;6.492;2024-03-02T04:15:59;7.70;99.90
60309;DHT22;50313;52.894;6.492;2024-03-02T04:18:24;7.70;99.90
60309;DHT22;50313;52.894;6.492;2024-03-02T04:20:50;7.60;1.00
60309;DHT22;50313;52.894;6.492;2024-03-02T04:23:16;7.70;1.00
60309;DHT22;50313;52.894;6.492;2024-03-02T04:25:42;7.70;99.90
60309;DHT22;50313;52.894;6.492;2024-03-02T04:28:08;7.60;1.00
60309;DHT22;50313;52.894;6.492;2024-03-02T04:30:33;7.60;19.50
60309;DHT22;50313;52.894;6.492;2024-03-02T04:32:59;7.60;99.90
60309;DHT22;50313;52.894;6.492;2024-03-02T04:35:25;7.60;99.90
60309;DHT22;50313;52.894;6.492;2024-03-02T04:37:51;7.60;39.40
60309;DHT22;50313;52.894;6.492;2024-03-02T04:40:16;7.50;99.90
60309;DHT22;50313;52.894;6.492;2024-03-02T04:42:42;7.50;99.90
60309;DHT22;50313;52.894;6.492;2024-03-02T04:45:08;7.60;99.90
60309;DHT22;50313;52.894;6.492;2024-03-02T04:47:34;7.60;99.90
60309;DHT22;50313;52.894;6.492;2024-03-02T04:50:00;7.60;99.90
60309;DHT22;50313;52.894;6.492;2024-03-02T04:52:26;7.60;99.90
60309;DHT22;50313;52.894;6.492;2024-03-02T04:54:52;7.60;99.90
60309;DHT22;50313;52.894;6.492;2024-03-02T04:57:49;7.50;1.00
60309;DHT22;50313;52.894;6.492;2024-03-02T05:00:16;7.50;1.00
60309;DHT22;50313;52.894;6.492;2024-03-02T05:02:42;7.40;99.90
60309;DHT22;50313;52.894;6.492;2024-03-02T05:05:08;7.50;1.00
60309;DHT22;50313;52.894;6.492;2024-03-02T05:07:34;7.40;1.00
60309;DHT22;50313;52.894;6.492;2024-03-02T05:10:00;7.30;1.00
60309;DHT22;50313;52.894;6.492;2024-03-02T05:12:26;7.30;15.80
60309;DHT22;50313;52.894;6.492;2024-03-02T05:15:15;7.30;15.80
60309;DHT22;50313;52.894;6.492;2024-03-02T05:17:41;7.30;81.90
60309;DHT22;50313;52.894;6.492;2024-03-02T05:20:10;7.30;99.90
60309;DHT22;50313;52.894;6.492;2024-03-02T05:22:54;7.30;99.90
60309;DHT22;50313;52.894;6.492;2024-03-02T05:25:20;7.40;99.90
60309;DHT22;50313;52.894;6.492;2024-03-02T05:27:46;7.40;96.90
60309;DHT22;50313;52.894;6.492;2024-03-02T05:30:12;7.40;99.90
60309;DHT22;50313;52.894;6.492;2024-03-02T05:32:37;7.40;99.90
60309;DHT22;50313;52.894;6.492;2024-03-02T05:35:04;7.40;99.90
60309;DHT22;50313;52.894;6.492;2024-03-02T05:37:30;7.40;99.90
60309;DHT22;50313;52.894;6.492;2024-03-02T05:39:56;7.40;99.90
60309;DHT22;50313;52.894;6.492;2024-03-02T05:42:22;7.40;99.90
60309;DHT22;50313;52.894;6.492;2024-03-02T05:44:47;7.40;99.90
60309;DHT22;50313;52.894;6.492;2024-03-02T05:47:13;7.40;99.90
60309;DHT22;50313;52.894;6.492;2024-03-02T05:49:39;7.40;99.90
60309;DHT22;50313;52.894;6.492;2024-03-02T05:52:05;7.40;99.90
60309;DHT22;50313;52.894;6.492;2024-03-02T05:54:30;7.40;99.90
60309;DHT22;50313;52.894;6.492;2024-03-02T05:56:56;7.40;99.90
60309;DHT22;50313;52.894;6.492;2024-03-02T05:59:22;7.30;99.90
60309;DHT22;50313;52.894;6.492;2024-03-02T06:01:48;7.30;99.90
60309;DHT22;50313;52.894;6.492;2024-03-02T06:04:16;7.30;99.90
60309;DHT22;50313;52.894;6.492;2024-03-02T06:06:42;7.30;99.90
60309;DHT22;50313;52.894;6.492;2024-03-02T06:09:08;7.20;99.90
60309;DHT22;50313;52.894;6.492;2024-03-02T06:11:36;7.10;99.90
60309;DHT22;50313;52.894;6.492;2024-03-02T06:14:06;7.00;99.90
60309;DHT22;50313;52.894;6.492;2024-03-02T06:16:33;6.90;99.90
60309;DHT22;50313;52.894;6.492;2024-03-02T06:18:59;6.80;99.90
60309;DHT22;50313;52.894;6.492;2024-03-02T06:21:25;6.90;99.90
60309;DHT22;50313;52.894;6.492;2024-03-02T06:23:51;6.80;99.90
60309;DHT22;50313;52.894;6.492;2024-03-02T06:26:17;6.60;99.90
60309;DHT22;50313;52.894;6.492;2024-03-02T06:28:44;6.50;99.90
60309;DHT22;50313;52.894;6.492;2024-03-02T06:31:10;6.40;99.90
60309;DHT22;50313;52.894;6.492;2024-03-02T06:33:36;6.40;99.90
60309;DHT22;50313;52.894;6.492;2024-03-02T06:36:02;6.30;99.90
60309;DHT22;50313;52.894;6.492;2024-03-02T06:38:28;6.20;99.90
60309;DHT22;50313;52.894;6.492;2024-03-02T06:40:54;6.10;99.90
60309;DHT22;50313;52.894;6.492;2024-03-02T06:43:22;6.00;99.90
60309;DHT22;50313;52.894;6.492;2024-03-02T06:45:52;6.00;99.90
60309;DHT22;50313;52.894;6.492;2024-03-02T06:48:18;6.00;99.90
60309;DHT22;50313;52.894;6.492;2024-03-02T06:50:49;6.00;99.90
60309;DHT22;50313;52.894;6.492;2024-03-02T06:53:16;6.10;99.90
60309;DHT22;50313;52.894;6.492;2024-03-02T06:55:46;6.20;99.90
60309;DHT22;50313;52.894;6.492;2024-03-02T06:58:15;6.20;99.90
60309;DHT22;50313;52.894;6.492;2024-03-02T07:00:42;6.30;99.90
60309;DHT22;50313;52.894;6.492;2024-03-02T07:03:08;6.40;99.90
60309;DHT22;50313;52.894;6.492;2024-03-02T07:05:33;6.50;99.90
60309;DHT22;50313;52.894;6.492;2024-03-02T07:07:59;6.60;99.90
60309;DHT22;50313;52.894;6.492;2024-03-02T07:10:27;6.70;99.90
60309;DHT22;50313;52.894;6.492;2024-03-02T07:12:52;6.80;99.90
60309;DHT22;50313;52.894;6.492;2024-03-02T07:15:19;6.90;99.90
60309;DHT22;50313;52.894;6.492;2024-03-02T07:18:03;6.80;99.90
60309;DHT22;50313;52.894;6.492;2024-03-02T07:20:28;6.80;99.90
60309;DHT22;50313;52.894;6.492;2024-03-02T07:22:54;6.80;99.90
60309;DHT22;50313;52.894;6.492;2024-03-02T07:25:20;6.80;99.90
60309;DHT22;50313;52.894;6.492;2024-03-02T07:27:46;6.80;99.90
60309;DHT22;50313;52.894;6.492;2024-03-02T07:30:14;6.80;99.90
60309;DHT22;50313;52.894;6.492;2024-03-02T07:32:41;6.80;99.90
60309;DHT22;50313;52.894;6.492;2024-03-02T07:35:14;6.90;99.90
60309;DHT22;50313;52.894;6.492;2024-03-02T07:37:41;6.90;99.90
60309;DHT22;50313;52.894;6.492;2024-03-02T07:40:08;7.00;99.90
60309;DHT22;50313;52.894;6.492;2024-03-02T07:42:38;7.00;99.90
60309;DHT22;50313;52.894;6.492;2024-03-02T07:45:05;7.10;99.90
60309;DHT22;50313;52.894;6.492;2024-03-02T07:47:31;7.00;99.90
60309;DHT22;50313;52.894;6.492;2024-03-02T07:49:56;7.10;99.90
60309;DHT22;50313;52.894;6.492;2024-03-02T07:52:22;7.10;99.90
60309;DHT22;50313;52.894;6.492;2024-03-02T07:54:48;7.10;99.90
60309;DHT22;50313;52.894;6.492;2024-03-02T07:57:13;7.00;99.90
60309;DHT22;50313;52.894;6.492;2024-03-02T07:59:39;7.00;99.90
60309;DHT22;50313;52.894;6.492;2024-03-02T08:02:05;7.10;99.90
60309;DHT22;50313;52.894;6.492;2024-03-02T08:04:31;7.20;99.90
60309;DHT22;50313;52.894;6.492;2024-03-02T08:06:57;7.20;99.90
60309;DHT22;50313;52.894;6.492;2024-03-02T08:09:23;7.30;99.90
60309;DHT22;50313;52.894;6.492;2024-03-02T08:11:49;7.40;99.90
60309;DHT22;50313;52.894;6.492;2024-03-02T08:14:14;7.40;99.90
60309;DHT22;50313;52.894;6.492;2024-03-02T08:16:41;7.50;99.90
60309;DHT22;50313;52.894;6.492;2024-03-02T08:19:07;7.60;99.90
60309;DHT22;50313;52.894;6.492;2024-03-02T08:21:34;7.80;99.90
60309;DHT22;50313;52.894;6.492;2024-03-02T08:24:02;8.00;99.90
60309;DHT22;50313;52.894;6.492;2024-03-02T08:26:28;8.20;99.90
60309;DHT22;50313;52.894;6.492;2024-03-02T08:28:58;8.40;68.70
60309;DHT22;50313;52.894;6.492;2024-03-02T08:31:24;8.50;99.90
60309;DHT22;50313;52.894;6.492;2024-03-02T08:33:49;8.60;99.90
60309;DHT22;50313;52.894;6.492;2024-03-02T08:36:15;8.50;99.90
60309;DHT22;50313;52.894;6.492;2024-03-02T08:38:41;8.60;99.90
60309;DHT22;50313;52.894;6.492;2024-03-02T08:41:07;8.60;75.00
60309;DHT22;50313;52.894;6.492;2024-03-02T08:43:34;8.70;1.00
60309;DHT22;50313;52.894;6.492;2024-03-02T08:45:59;8.60;99.90
60309;DHT22;50313;52.894;6.492;2024-03-02T08:48:25;8.50;99.90
60309;DHT22;50313;52.894;6.492;2024-03-02T08:50:51;8.60;1.00
60309;DHT22;50313;52.894;6.492;2024-03-02T08:53:16;8.70;3.00
60309;DHT22;50313;52.894;6.492;2024-03-02T08:55:45;8.70;1.00
60309;DHT22;50313;52.894;6.492;2024-03-02T08:58:11;8.70;1.00
60309;DHT22;50313;52.894;6.492;2024-03-02T09:00:37;8.80;1.00
60309;DHT22;50313;52.894;6.492;2024-03-02T09:03:03;8.90;99.90
60309;DHT22;50313;52.894;6.492;2024-03-02T09:05:29;9.00;99.90
60309;DHT22;50313;52.894;6.492;2024-03-02T09:07:55;9.10;99.90
60309;DHT22;50313;52.894;6.492;2024-03-02T09:10:21;9.20;99.90
60309;DHT22;50313;52.894;6.492;2024-03-02T09:12:46;9.20;99.90
60309;DHT22;50313;52.894;6.492;2024-03-02T09:15:12;9.10;73.60
60309;DHT22;50313;52.894;6.492;2024-03-02T09:17:38;9.00;99.90
60309;DHT22;50313;52.894;6.492;2024-03-02T09:20:05;9.10;99.90
60309;DHT22;50313;52.894;6.492;2024-03-02T09:22:30;9.10;1.00
60309;DHT22;50313;52.894;6.492;2024-03-02T09:24:57;9.10;89.50
60309;DHT22;50313;52.894;6.492;2024-03-02T09:27:24;9.20;1.00
60309;DHT22;50313;52.894;6.492;2024-03-02T09:29:49;9.30;1.00
60309;DHT22;50313;52.894;6.492;2024-03-02T09:32:15;9.30;99.90
60309;DHT22;50313;52.894;6.492;2024-03-02T09:34:41;9.30;99.90
60309;DHT22;50313;52.894;6.492;2024-03-02T09:37:07;9.30;99.90
60309;DHT22;50313;52.894;6.492;2024-03-02T09:39:33;9.30;44.60
60309;DHT22;50313;52.894;6.492;2024-03-02T09:41:59;9.30;99.90
60309;DHT22;50313;52.894;6.492;2024-03-02T09:44:25;9.30;24.80
60309;DHT22;50313;52.894;6.492;2024-03-02T09:46:52;9.30;1.00
60309;DHT22;50313;52.894;6.492;2024-03-02T09:49:18;9.20;99.90
60309;DHT22;50313;52.894;6.492;2024-03-02T09:51:53;9.30;99.90
60309;DHT22;50313;52.894;6.492;2024-03-02T09:54:19;9.50;1.00
60309;DHT22;50313;52.894;6.492;2024-03-02T09:56:45;9.50;43.80
60309;DHT22;50313;52.894;6.492;2024-03-02T09:59:10;9.60;42.60
60309;DHT22;50313;52.894;6.492;2024-03-02T10:01:36;9.90;99.90
60309;DHT22;50313;52.894;6.492;2024-03-02T10:04:02;10.00;99.90
60309;DHT22;50313;52.894;6.492;2024-03-02T10:06:29;10.10;99.50
60309;DHT22;50313;52.894;6.492;2024-03-02T10:08:55;10.10;26.70
60309;DHT22;50313;52.894;6.492;2024-03-02T10:11:32;10.20;1.00
60309;DHT22;50313;52.894;6.492;2024-03-02T10:16:36;10.20;1.40
60309;DHT22;50313;52.894;6.492;2024-03-02T10:19:21;9.90;1.00
60309;DHT22;50313;52.894;6.492;2024-03-02T10:21:48;9.70;99.90
60309;DHT22;50313;52.894;6.492;2024-03-02T10:24:15;9.90;99.90
60309;DHT22;50313;52.894;6.492;2024-03-02T10:26:41;10.00;94.30
60309;DHT22;50313;52.894;6.492;2024-03-02T10:29:10;10.10;99.90
60309;DHT22;50313;52.894;6.492;2024-03-02T10:31:41;10.20;99.90
60309;DHT22;50313;52.894;6.492;2024-03-02T10:34:07;10.10;1.00
60309;DHT22;50313;52.894;6.492;2024-03-02T10:36:37;10.10;1.00
60309;DHT22;50313;52.894;6.492;2024-03-02T10:39:07;10.20;1.00
60309;DHT22;50313;52.894;6.492;2024-03-02T10:41:34;10.30;21.60
60309;DHT22;50313;52.894;6.492;2024-03-02T10:44:04;10.40;99.90
60309;DHT22;50313;52.894;6.492;2024-03-02T10:46:32;10.50;21.00
60309;DHT22;50313;52.894;6.492;2024-03-02T10:48:59;10.50;99.90
60309;DHT22;50313;52.894;6.492;2024-03-02T10:51:30;10.60;99.90
60309;DHT22;50313;52.894;6.492;2024-03-02T10:54:00;10.60;99.90
60309;DHT22;50313;52.894;6.492;2024-03-02T10:56:34;10.70;99.90
60309;DHT22;50313;52.894;6.492;2024-03-02T11:01:58;10.70;99.90
60309;DHT22;50313;52.894;6.492;2024-03-02T11:04:28;10.70;99.90
60309;DHT22;50313;52.894;6.492;2024-03-02T11:07:08;10.70;28.30
60309;DHT22;50313;52.894;6.492;2024-03-02T11:09:38;10.70;1.00
60309;DHT22;50313;52.894;6.492;2024-03-02T11:12:12;10.90;99.90
60309;DHT22;50313;52.894;6.492;2024-03-02T11:14:41;11.00;1.00
60309;DHT22;50313;52.894;6.492;2024-03-02T11:17:14;11.00;22.80
60309;DHT22;50313;52.894;6.492;2024-03-02T11:19:44;11.00;1.00
60309;DHT22;50313;52.894;6.492;2024-03-02T11:22:11;11.00;1.00
60309;DHT22;50313;52.894;6.492;2024-03-02T11:24:37;11.00;1.00
60309;DHT22;50313;52.894;6.492;2024-03-02T11:27:07;11.10;1.00
60309;DHT22;50313;52.894;6.492;2024-03-02T11:32:14;11.20;99.90
60309;DHT22;50313;52.894;6.492;2024-03-02T11:34:45;11.20;99.90
60309;DHT22;50313;52.894;6.492;2024-03-02T11:37:20;11.20;99.90
60309;DHT22;50313;52.894;6.492;2024-03-02T11:39:49;11.20;99.90
60309;DHT22;50313;52.894;6.492;2024-03-02T11:42:15;11.40;99.90
60309;DHT22;50313;52.894;6.492;2024-03-02T11:44:46;11.40;99.90
60309;DHT22;50313;52.894;6.492;2024-03-02T11:47:14;11.30;99.90
60309;DHT22;50313;52.894;6.492;2024-03-02T11:49:41;11.30;99.90
60309;DHT22;50313;52.894;6.492;2024-03-02T11:52:09;11.40;99.90
60309;DHT22;50313;52.894;6.492;2024-03-02T11:54:40;11.40;99.90
60309;DHT22;50313;52.894;6.492;2024-03-02T11:57:07;11.50;99.90
60309;DHT22;50313;52.894;6.492;2024-03-02T11:59:34;11.50;99.90
60309;DHT22;50313;52.894;6.492;2024-03-02T12:02:00;11.50;99.90
60309;DHT22;50313;52.894;6.492;2024-03-02T12:04:26;11.60;17.50
60309;DHT22;50313;52.894;6.492;2024-03-02T12:06:59;11.60;85.20
60309;DHT22;50313;52.894;6.492;2024-03-02T12:09:29;11.70;91.50
60309;DHT22;50313;52.894;6.492;2024-03-02T12:12:08;11.90;99.90
60309;DHT22;50313;52.894;6.492;2024-03-02T12:14:36;12.00;57.10
60309;DHT22;50313;52.894;6.492;2024-03-02T12:17:03;12.10;99.90
60309;DHT22;50313;52.894;6.492;2024-03-02T12:19:29;12.10;99.90
60309;DHT22;50313;52.894;6.492;2024-03-02T12:21:59;12.10;99.90
60309;DHT22;50313;52.894;6.492;2024-03-02T12:24:29;12.00;1.00
60309;DHT22;50313;52.894;6.492;2024-03-02T12:26:55;12.00;1.00
60309;DHT22;50313;52.894;6.492;2024-03-02T12:29:22;12.00;1.00
60309;DHT22;50313;52.894;6.492;2024-03-02T12:31:52;12.10;1.00
60309;DHT22;50313;52.894;6.492;2024-03-02T12:34:18;12.00;99.90
60309;DHT22;50313;52.894;6.492;2024-03-02T12:36:46;12.00;99.90
60309;DHT22;50313;52.894;6.492;2024-03-02T12:39:14;12.00;99.90
60309;DHT22;50313;52.894;6.492;2024-03-02T12:41:41;12.20;99.90
60309;DHT22;50313;52.894;6.492;2024-03-02T12:44:07;12.20;99.90
60309;DHT22;50313;52.894;6.492;2024-03-02T12:46:33;12.20;99.90
60309;DHT22;50313;52.894;6.492;2024-03-02T12:49:07;12.20;99.90
60309;DHT22;50313;52.894;6.492;2024-03-02T12:51:33;12.30;99.90
60309;DHT22;50313;52.894;6.492;2024-03-02T12:54:00;12.40;99.90
60309;DHT22;50313;52.894;6.492;2024-03-02T12:56:27;12.50;99.90
60309;DHT22;50313;52.894;6.492;2024-03-02T12:58:56;12.50;99.90
60309;DHT22;50313;52.894;6.492;2024-03-02T13:01:21;12.60;99.90
60309;DHT22;50313;52.894;6.492;2024-03-02T13:03:52;12.60;99.90
60309;DHT22;50313;52.894;6.492;2024-03-02T13:06:18;12.60;99.90
60309;DHT22;50313;52.894;6.492;2024-03-02T13:08:45;12.40;99.90
60309;DHT22;50313;52.894;6.492;2024-03-02T13:11:11;12.50;99.90
60309;DHT22;50313;52.894;6.492;2024-03-02T13:13:38;12.60;99.90
60309;DHT22;50313;52.894;6.492;2024-03-02T13:16:11;12.60;99.90
60309;DHT22;50313;52.894;6.492;2024-03-02T13:18:41;12.70;99.90
60309;DHT22;50313;52.894;6.492;2024-03-02T13:21:08;12.80;99.90
60309;DHT22;50313;52.894;6.492;2024-03-02T13:23:34;12.70;99.90
60309;DHT22;50313;52.894;6.492;2024-03-02T13:25:59;12.80;99.90
60309;DHT22;50313;52.894;6.492;2024-03-02T13:28:26;12.90;99.90
60309;DHT22;50313;52.894;6.492;2024-03-02T13:30:51;12.90;99.90
60309;DHT22;50313;52.894;6.492;2024-03-02T13:33:17;12.90;99.90
60309;DHT22;50313;52.894;6.492;2024-03-02T13:35:57;12.80;89.30
60309;DHT22;50313;52.894;6.492;2024-03-02T13:38:22;12.70;29.50
60309;DHT22;50313;52.894;6.492;2024-03-02T13:40:49;12.70;18.20
60309;DHT22;50313;52.894;6.492;2024-03-02T13:43:18;12.60;1.00
60309;DHT22;50313;52.894;6.492;2024-03-02T13:45:45;12.60;1.00
60309;DHT22;50313;52.894;6.492;2024-03-02T13:48:10;12.60;1.00
60309;DHT22;50313;52.894;6.492;2024-03-02T13:50:36;12.70;1.00
60309;DHT22;50313;52.894;6.492;2024-03-02T13:53:02;12.70;1.00
60309;DHT22;50313;52.894;6.492;2024-03-02T13:55:28;12.70;1.00
60309;DHT22;50313;52.894;6.492;2024-03-02T13:57:54;12.90;1.00
60309;DHT22;50313;52.894;6.492;2024-03-02T14:00:20;12.90;1.00
60309;DHT22;50313;52.894;6.492;2024-03-02T14:02:46;12.90;1.00
60309;DHT22;50313;52.894;6.492;2024-03-02T14:05:12;12.80;1.00
60309;DHT22;50313;52.894;6.492;2024-03-02T14:07:39;12.80;1.00
60309;DHT22;50313;52.894;6.492;2024-03-02T14:10:05;12.60;1.00
60309;DHT22;50313;52.894;6.492;2024-03-02T14:12:31;12.70;1.00
60309;DHT22;50313;52.894;6.492;2024-03-02T14:14:57;12.90;1.00
60309;DHT22;50313;52.894;6.492;2024-03-02T14:17:28;13.00;1.00
60309;DHT22;50313;52.894;6.492;2024-03-02T14:19:53;13.00;99.90
60309;DHT22;50313;52.894;6.492;2024-03-02T14:22:20;13.10;99.90
60309;DHT22;50313;52.894;6.492;2024-03-02T14:25:03;13.30;1.00
60309;DHT22;50313;52.894;6.492;2024-03-02T14:27:29;13.70;1.00
60309;DHT22;50313;52.894;6.492;2024-03-02T14:29:56;13.80;1.00
60309;DHT22;50313;52.894;6.492;2024-03-02T14:32:22;14.10;1.00
60309;DHT22;50313;52.894;6.492;2024-03-02T14:34:47;13.70;1.00
60309;DHT22;50313;52.894;6.492;2024-03-02T14:37:15;13.50;99.90
60309;DHT22;50313;52.894;6.492;2024-03-02T14:39:41;13.60;99.90
60309;DHT22;50313;52.894;6.492;2024-03-02T14:42:07;13.50;99.90
60309;DHT22;50313;52.894;6.492;2024-03-02T14:44:33;13.40;99.90
60309;DHT22;50313;52.894;6.492;2024-03-02T14:47:03;13.20;99.90
60309;DHT22;50313;52.894;6.492;2024-03-02T14:49:30;13.30;99.90
60309;DHT22;50313;52.894;6.492;2024-03-02T14:51:55;13.60;99.90
60309;DHT22;50313;52.894;6.492;2024-03-02T14:54:21;13.70;99.90
60309;DHT22;50313;52.894;6.492;2024-03-02T14:56:47;13.90;99.90
60309;DHT22;50313;52.894;6.492;2024-03-02T14:59:13;13.60;99.90
60309;DHT22;50313;52.894;6.492;2024-03-02T15:01:39;13.60;99.90
60309;DHT22;50313;52.894;6.492;2024-03-02T15:04:05;13.40;99.90
60309;DHT22;50313;52.894;6.492;2024-03-02T15:06:30;13.20;99.90
60309;DHT22;50313;52.894;6.492;2024-03-02T15:08:56;13.10;99.90
60309;DHT22;50313;52.894;6.492;2024-03-02T15:11:22;13.50;99.90
60309;DHT22;50313;52.894;6.492;2024-03-02T15:13:50;13.80;99.90
60309;DHT22;50313;52.894;6.492;2024-03-02T15:16:16;14.00;99.90
60309;DHT22;50313;52.894;6.492;2024-03-02T15:18:42;14.30;99.90
60309;DHT22;50313;52.894;6.492;2024-03-02T15:21:08;14.30;99.90
60309;DHT22;50313;52.894;6.492;2024-03-02T15:23:33;14.70;99.90
60309;DHT22;50313;52.894;6.492;2024-03-02T15:25:59;14.10;99.90
60309;DHT22;50313;52.894;6.492;2024-03-02T15:28:25;14.10;99.90
60309;DHT22;50313;52.894;6.492;2024-03-02T15:30:51;13.70;99.90
60309;DHT22;50313;52.894;6.492;2024-03-02T15:33:17;13.70;99.90
60309;DHT22;50313;52.894;6.492;2024-03-02T15:35:43;13.70;99.90
60309;DHT22;50313;52.894;6.492;2024-03-02T15:38:09;13.50;66.30
60309;DHT22;50313;52.894;6.492;2024-03-02T15:40:37;13.20;1.00
60309;DHT22;50313;52.894;6.492;2024-03-02T15:43:03;13.40;17.00
60309;DHT22;50313;52.894;6.492;2024-03-02T15:45:29;13.50;26.10
60309;DHT22;50313;52.894;6.492;2024-03-02T15:47:59;14.00;99.90
60309;DHT22;50313;52.894;6.492;2024-03-02T15:50:26;14.70;99.90
60309;DHT22;50313;52.894;6.492;2024-03-02T15:52:51;15.10;99.90
60309;DHT22;50313;52.894;6.492;2024-03-02T15:55:17;15.20;99.90
60309;DHT22;50313;52.894;6.492;2024-03-02T15:57:43;15.50;99.90
60309;DHT22;50313;52.894;6.492;2024-03-02T16:00:09;16.00;99.90